Time;durP1;ratioP1;P1;durP2;ratioP2;P2;SDS_P1;SDS_P2;PMS_P1;PMS_P2;Temp;Humidity;BMP_temperature;BMP_pressure;BME280_temperature;BME280_humidity;BME280_pressure;Samples;Min_cycle;Max_cycle;Signal;HPM_P1;HPM_P2
2022/08/27 00:00:07;;;;;;;;;;;15.70;99.90;;;;;;5035439;28;20332;-67
2022/08/27 00:02:34;;;;;;;;;;;15.70;99.90;;;;;;5035383;28;19921;-67
2022/08/27 00:05:01;;;;;;;;;;;15.70;99.90;;;;;;5035478;28;19967;-67
2022/08/27 00:07:26;;;;;;;;;;;15.70;99.90;;;;;;5035444;28;19925;-67
2022/08/27 00:09:52;;;;;;;;;;;15.70;99.90;;;;;;5035204;28;19924;-67
2022/08/27 00:12:17;;;;;;;;;;;15.70;99.90;;;;;;5035098;28;19920;-67
2022/08/27 00:14:43;;;;;;;;;;;15.60;99.90;;;;;;5035179;28;19924;-67
2022/08/27 00:17:09;;;;;;;;;;;15.60;99.90;;;;;;5035087;28;19925;-67
2022/08/27 00:19:35;;;;;;;;;;;15.70;99.90;;;;;;5035348;28;19925;-67
2022/08/27 00:22:01;;;;;;;;;;;15.70;99.90;;;;;;5034795;28;19920;-67
2022/08/27 00:24:26;;;;;;;;;;;15.70;99.90;;;;;;5051978;28;20321;-67
2022/08/27 00:26:52;;;;;;;;;;;15.70;99.90;;;;;;5034879;28;19921;-67
2022/08/27 00:29:18;;;;;;;;;;;15.70;99.90;;;;;;5035122;28;19929;-67
2022/08/27 00:31:44;;;;;;;;;;;15.80;99.90;;;;;;5018259;28;20410;-67
2022/08/27 00:34:10;;;;;;;;;;;15.80;99.90;;;;;;5034852;28;20036;-67
2022/08/27 00:36:35;;;;;;;;;;;15.80;99.90;;;;;;5034631;28;19963;-67
2022/08/27 00:39:01;;;;;;;;;;;15.80;99.90;;;;;;5034757;28;19920;-67
2022/08/27 00:41:27;;;;;;;;;;;15.90;99.90;;;;;;5034872;28;19925;-67
2022/08/27 00:43:52;;;;;;;;;;;15.90;99.90;;;;;;5034830;28;19974;-67
2022/08/27 00:46:24;;;;;;;;;;;15.90;99.90;;;;;;5034533;28;19928;-67
2022/08/27 00:48:51;;;;;;;;;;;15.90;99.90;;;;;;5052497;28;19932;-67
2022/08/27 00:51:16;;;;;;;;;;;15.90;99.90;;;;;;5034537;28;19932;-67
2022/08/27 00:53:42;;;;;;;;;;;16.00;99.90;;;;;;5034620;28;19925;-67
2022/08/27 00:56:09;;;;;;;;;;;16.00;99.90;;;;;;5034367;28;20081;-67
2022/08/27 00:58:37;;;;;;;;;;;16.00;99.90;;;;;;5034274;28;20406;-67
2022/08/27 01:01:04;;;;;;;;;;;16.00;99.90;;;;;;5018177;28;19927;-67
2022/08/27 01:03:29;;;;;;;;;;;16.00;99.90;;;;;;5034170;28;19921;-67
2022/08/27 01:05:55;;;;;;;;;;;16.00;99.90;;;;;;5017756;28;19952;-67
2022/08/27 01:08:23;;;;;;;;;;;16.00;99.90;;;;;;5033896;28;19982;-67
2022/08/27 01:10:49;;;;;;;;;;;16.00;99.90;;;;;;5034098;28;19921;-67
2022/08/27 01:13:16;;;;;;;;;;;16.00;99.90;;;;;;5034235;28;19964;-67
2022/08/27 01:15:42;;;;;;;;;;;16.00;99.90;;;;;;5034433;28;20393;-67
2022/08/27 01:18:08;;;;;;;;;;;15.90;99.90;;;;;;5034046;28;19961;-67
2022/08/27 01:20:42;;;;;;;;;;;15.90;99.90;;;;;;5017431;28;19925;-67
2022/08/27 01:23:13;;;;;;;;;;;15.80;99.90;;;;;;5034273;28;20450;-67
2022/08/27 01:25:42;;;;;;;;;;;15.80;99.90;;;;;;5033871;28;19932;-67
2022/08/27 01:28:09;;;;;;;;;;;15.70;99.90;;;;;;5034057;28;20422;-67
2022/08/27 01:30:35;;;;;;;;;;;15.70;99.90;;;;;;5034112;28;19921;-67
2022/08/27 01:33:07;;;;;;;;;;;15.60;99.90;;;;;;5017114;28;19925;-67
2022/08/27 01:35:33;;;;;;;;;;;15.60;99.90;;;;;;5034056;28;19921;-67
2022/08/27 01:37:58;;;;;;;;;;;15.60;99.90;;;;;;5033659;28;20409;-67
2022/08/27 01:40:24;;;;;;;;;;;15.50;99.90;;;;;;5051570;28;20472;-67
2022/08/27 01:42:50;;;;;;;;;;;15.50;99.90;;;;;;5033499;28;19951;-67
2022/08/27 01:45:18;;;;;;;;;;;15.40;99.90;;;;;;5016761;28;19924;-67
2022/08/27 01:47:44;;;;;;;;;;;15.40;99.90;;;;;;5032663;28;19931;-67
2022/08/27 01:50:11;;;;;;;;;;;15.30;99.90;;;;;;5032908;28;19925;-67
2022/08/27 01:52:37;;;;;;;;;;;15.30;99.90;;;;;;5033109;28;20338;-67
2022/08/27 01:55:03;;;;;;;;;;;15.30;99.90;;;;;;5033069;28;19967;-67
2022/08/27 01:57:31;;;;;;;;;;;15.30;99.90;;;;;;5033631;28;19921;-67
2022/08/27 01:59:56;;;;;;;;;;;15.20;99.90;;;;;;5016501;28;19948;-67
2022/08/27 02:02:22;;;;;;;;;;;15.20;99.90;;;;;;5033075;28;20286;-67
2022/08/27 02:04:49;;;;;;;;;;;15.30;99.90;;;;;;5032859;28;19921;-67
2022/08/27 02:07:15;;;;;;;;;;;15.20;99.90;;;;;;5032788;28;20077;-67
2022/08/27 02:09:40;;;;;;;;;;;15.30;99.90;;;;;;5012661;28;20011;-67
2022/08/27 02:12:06;;;;;;;;;;;15.30;99.90;;;;;;5029454;28;19921;-67
2022/08/27 02:14:31;;;;;;;;;;;15.30;99.90;;;;;;5029197;28;20492;-67
2022/08/27 02:16:57;;;;;;;;;;;15.30;99.90;;;;;;5029214;28;20373;-67
2022/08/27 02:19:22;;;;;;;;;;;15.30;99.90;;;;;;5029163;28;19925;-67
2022/08/27 02:21:48;;;;;;;;;;;15.20;99.90;;;;;;5012975;28;19928;-67
2022/08/27 02:24:14;;;;;;;;;;;15.20;99.90;;;;;;5029151;28;20008;-67
2022/08/27 02:26:40;;;;;;;;;;;15.20;99.90;;;;;;5029232;28;19932;-67
2022/08/27 02:29:05;;;;;;;;;;;15.10;99.90;;;;;;5028971;28;19929;-67
2022/08/27 02:31:31;;;;;;;;;;;15.10;99.90;;;;;;5012809;28;19925;-67
2022/08/27 02:33:56;;;;;;;;;;;15.10;99.90;;;;;;5029022;28;19979;-67
2022/08/27 02:36:23;;;;;;;;;;;15.10;99.90;;;;;;5012772;28;19928;-67
2022/08/27 02:38:49;;;;;;;;;;;15.00;99.90;;;;;;5013441;28;19921;-67
2022/08/27 02:41:15;;;;;;;;;;;15.00;99.90;;;;;;5013395;28;19991;-67
2022/08/27 02:43:41;;;;;;;;;;;15.00;99.90;;;;;;5029893;28;19925;-67
2022/08/27 02:46:07;;;;;;;;;;;15.00;99.90;;;;;;5031011;28;20262;-67
2022/08/27 02:48:34;;;;;;;;;;;15.00;99.90;;;;;;5034640;28;19979;-67
2022/08/27 02:51:00;;;;;;;;;;;15.00;99.90;;;;;;5033565;28;19999;-67
2022/08/27 02:53:27;;;;;;;;;;;15.00;99.90;;;;;;5016935;28;20012;-67
2022/08/27 02:55:52;;;;;;;;;;;14.90;99.90;;;;;;5033242;28;20363;-67
2022/08/27 02:58:18;;;;;;;;;;;15.00;99.90;;;;;;5015865;28;20011;-67
2022/08/27 03:00:44;;;;;;;;;;;14.90;99.90;;;;;;5032209;28;19921;-67
2022/08/27 03:03:09;;;;;;;;;;;14.90;99.90;;;;;;5032520;28;19921;-67
2022/08/27 03:05:35;;;;;;;;;;;14.90;99.90;;;;;;5032214;28;19921;-67
2022/08/27 03:08:02;;;;;;;;;;;15.00;99.90;;;;;;5038669;28;20408;-67
2022/08/27 03:10:27;;;;;;;;;;;15.00;99.90;;;;;;5019271;28;19967;-67
2022/08/27 03:12:53;;;;;;;;;;;15.10;99.90;;;;;;5035547;28;19964;-67
2022/08/27 03:15:19;;;;;;;;;;;15.10;99.90;;;;;;5019015;28;19925;-67
2022/08/27 03:20:28;;;;;;;;;;;15.20;99.90;;;;;;5035645;28;19921;-67
2022/08/27 03:22:54;;;;;;;;;;;15.20;99.90;;;;;;5036192;28;20267;-67
2022/08/27 03:25:19;;;;;;;;;;;15.20;99.90;;;;;;5036097;28;19928;-67
2022/08/27 03:27:45;;;;;;;;;;;15.20;99.90;;;;;;5036177;28;19951;-67
2022/08/27 03:30:13;;;;;;;;;;;15.30;99.90;;;;;;5019724;28;19929;-67
2022/08/27 03:32:39;;;;;;;;;;;15.30;99.90;;;;;;5036377;28;20016;-67
2022/08/27 03:35:05;;;;;;;;;;;15.30;99.90;;;;;;5035834;28;20015;-67
2022/08/27 03:37:30;;;;;;;;;;;15.30;99.90;;;;;;5036239;28;20274;-67
2022/08/27 03:39:56;;;;;;;;;;;15.40;99.90;;;;;;5035875;28;20011;-67
2022/08/27 03:42:22;;;;;;;;;;;15.40;99.90;;;;;;5019355;28;19920;-67
2022/08/27 03:44:48;;;;;;;;;;;15.40;99.90;;;;;;5035961;28;19928;-67
2022/08/27 03:47:13;;;;;;;;;;;15.40;99.90;;;;;;5035695;28;20015;-67
2022/08/27 03:49:39;;;;;;;;;;;15.40;99.90;;;;;;5053524;28;19932;-67
2022/08/27 03:52:05;;;;;;;;;;;15.40;99.90;;;;;;5035651;28;20426;-67
2022/08/27 03:54:33;;;;;;;;;;;15.40;99.90;;;;;;5035546;28;19928;-67
2022/08/27 03:56:58;;;;;;;;;;;15.40;99.90;;;;;;5035094;28;19921;-67
2022/08/27 03:59:23;;;;;;;;;;;15.40;99.90;;;;;;5035312;28;19921;-67
2022/08/27 04:01:49;;;;;;;;;;;15.30;99.90;;;;;;5035341;28;19935;-67
2022/08/27 04:04:14;;;;;;;;;;;15.30;99.90;;;;;;5035496;28;19921;-67
2022/08/27 04:06:40;;;;;;;;;;;15.30;99.90;;;;;;5035299;28;19931;-67
2022/08/27 04:09:05;;;;;;;;;;;15.30;99.90;;;;;;5052987;28;19929;-67
2022/08/27 04:11:33;;;;;;;;;;;15.30;99.90;;;;;;5035189;28;19924;-67
2022/08/27 04:13:59;;;;;;;;;;;15.30;99.90;;;;;;5035194;28;20011;-67
2022/08/27 04:16:25;;;;;;;;;;;15.30;99.90;;;;;;5053070;28;19964;-67
2022/08/27 04:18:52;;;;;;;;;;;15.30;99.90;;;;;;5035127;28;19921;-67
2022/08/27 04:21:17;;;;;;;;;;;15.30;99.90;;;;;;5035040;28;19966;-67
2022/08/27 04:23:43;;;;;;;;;;;15.30;99.90;;;;;;5052922;28;19929;-67
2022/08/27 04:26:09;;;;;;;;;;;15.30;99.90;;;;;;5035225;28;19925;-67
2022/08/27 04:28:35;;;;;;;;;;;15.20;99.90;;;;;;5034910;28;19952;-67
2022/08/27 04:31:01;;;;;;;;;;;15.20;99.90;;;;;;5034755;28;20339;-67
2022/08/27 04:33:27;;;;;;;;;;;15.20;99.90;;;;;;5034930;28;19924;-67
2022/08/27 04:35:56;;;;;;;;;;;15.20;99.90;;;;;;5034894;28;19921;-67
2022/08/27 04:38:21;;;;;;;;;;;15.20;99.90;;;;;;5035055;28;20325;-67
2022/08/27 04:43:31;;;;;;;;;;;15.10;99.90;;;;;;5034789;28;19925;-67
2022/08/27 04:45:57;;;;;;;;;;;15.10;99.90;;;;;;5017786;28;20347;-67
2022/08/27 04:48:24;;;;;;;;;;;15.10;99.90;;;;;;5033876;28;19929;-67
2022/08/27 04:50:49;;;;;;;;;;;15.00;99.90;;;;;;5033955;28;19928;-67
2022/08/27 04:53:15;;;;;;;;;;;14.90;99.90;;;;;;5052335;28;20024;-67
2022/08/27 04:55:42;;;;;;;;;;;14.90;99.90;;;;;;5034315;28;19971;-67
2022/08/27 04:58:07;;;;;;;;;;;14.80;99.90;;;;;;5034527;28;20329;-67
2022/08/27 05:00:33;;;;;;;;;;;14.80;99.90;;;;;;5034602;28;20023;-67
2022/08/27 05:02:58;;;;;;;;;;;14.80;99.90;;;;;;5034493;28;20402;-67
2022/08/27 05:05:26;;;;;;;;;;;14.70;99.90;;;;;;5034258;28;19931;-67
2022/08/27 05:07:51;;;;;;;;;;;14.70;99.90;;;;;;5034057;28;19925;-67
2022/08/27 05:10:17;;;;;;;;;;;14.70;99.90;;;;;;5033888;28;20382;-67
2022/08/27 05:12:42;;;;;;;;;;;14.70;99.90;;;;;;5017532;28;19928;-67
2022/08/27 05:15:08;;;;;;;;;;;14.70;99.90;;;;;;5034123;28;19920;-67
2022/08/27 05:17:33;;;;;;;;;;;14.70;99.90;;;;;;5034042;28;20255;-67
2022/08/27 05:19:59;;;;;;;;;;;14.70;99.90;;;;;;5034304;28;19921;-67
2022/08/27 05:22:26;;;;;;;;;;;14.70;99.90;;;;;;5033941;28;20393;-67
2022/08/27 05:24:51;;;;;;;;;;;14.70;99.90;;;;;;5033932;28;19925;-67
2022/08/27 05:27:17;;;;;;;;;;;14.70;99.90;;;;;;5033796;28;19931;-67
2022/08/27 05:29:42;;;;;;;;;;;14.80;99.90;;;;;;5033851;28;19990;-67
2022/08/27 05:32:08;;;;;;;;;;;14.80;99.90;;;;;;5051882;28;19931;-67
2022/08/27 05:34:34;;;;;;;;;;;14.80;99.90;;;;;;5034136;28;20266;-68
2022/08/27 05:37:00;;;;;;;;;;;14.90;99.90;;;;;;5033762;28;19928;-68
2022/08/27 05:39:25;;;;;;;;;;;14.90;99.90;;;;;;5051737;28;19936;-68
2022/08/27 05:41:54;;;;;;;;;;;15.10;99.90;;;;;;5033887;28;19921;-68
2022/08/27 05:44:20;;;;;;;;;;;15.30;99.90;;;;;;5033772;28;19924;-68
2022/08/27 05:46:45;;;;;;;;;;;15.50;99.90;;;;;;5033565;28;19931;-68
2022/08/27 05:49:11;;;;;;;;;;;16.30;99.90;;;;;;5033663;28;19974;-68
2022/08/27 05:51:37;;;;;;;;;;;17.70;99.90;;;;;;5033869;28;19929;-68
2022/08/27 05:54:04;;;;;;;;;;;18.80;99.90;;;;;;5051576;28;19925;-68
2022/08/27 05:56:31;;;;;;;;;;;19.40;99.90;;;;;;5033673;28;19920;-68
2022/08/27 06:01:45;;;;;;;;;;;20.10;99.90;;;;;;5033551;28;20382;-68
2022/08/27 06:04:12;;;;;;;;;;;21.60;99.90;;;;;;5033568;28;20374;-68
2022/08/27 06:06:38;;;;;;;;;;;22.00;99.90;;;;;;5033814;28;20294;-68
2022/08/27 06:09:04;;;;;;;;;;;22.90;99.90;;;;;;5051149;28;19935;-68
2022/08/27 06:11:29;;;;;;;;;;;23.40;99.00;;;;;;5033833;28;19921;-68
2022/08/27 06:13:55;;;;;;;;;;;23.90;94.40;;;;;;5033413;28;19921;-68
2022/08/27 06:16:20;;;;;;;;;;;23.80;94.70;;;;;;5034682;28;19921;-68
2022/08/27 06:18:47;;;;;;;;;;;24.60;93.40;;;;;;5051520;28;19974;-68
2022/08/27 06:21:13;;;;;;;;;;;25.60;94.60;;;;;;5034990;28;19975;-68
2022/08/27 06:23:39;;;;;;;;;;;26.00;93.60;;;;;;5061114;23;20022;-67
2022/08/27 06:26:05;;;;;;;;;;;26.90;93.30;;;;;;5060745;28;20008;-67
2022/08/27 06:28:31;;;;;;;;;;;27.30;90.50;;;;;;5076976;28;20416;-67
2022/08/27 06:30:57;;;;;;;;;;;;;;;;;;5095554;28;20011;-67
2022/08/27 06:33:22;;;;;;;;;;;28.10;89.20;;;;;;5076977;28;19927;-67
2022/08/27 06:35:48;;;;;;;;;;;28.40;88.30;;;;;;5077084;28;19949;-67
2022/08/27 06:38:13;;;;;;;;;;;28.60;86.10;;;;;;5095344;28;19939;-67
2022/08/27 06:40:40;;;;;;;;;;;28.00;81.60;;;;;;5076771;28;20571;-67
2022/08/27 06:43:06;;;;;;;;;;;28.80;86.50;;;;;;5076859;28;20012;-67
2022/08/27 06:45:35;;;;;;;;;;;29.30;79.10;;;;;;5076480;28;19990;-67
2022/08/27 06:48:01;;;;;;;;;;;29.70;80.10;;;;;;5076127;28;20405;-67
2022/08/27 06:50:26;;;;;;;;;;;29.40;82.00;;;;;;5094251;28;19927;-67
2022/08/27 06:52:52;;;;;;;;;;;28.70;78.50;;;;;;5075950;28;19928;-67
2022/08/27 06:55:17;;;;;;;;;;;27.60;80.10;;;;;;5075852;28;19927;-67
2022/08/27 06:57:43;;;;;;;;;;;26.20;84.20;;;;;;5076285;28;19973;-67
2022/08/27 07:00:08;;;;;;;;;;;24.90;86.60;;;;;;5076422;28;19990;-67
2022/08/27 07:02:34;;;;;;;;;;;24.40;89.30;;;;;;5076164;28;20022;-67
2022/08/27 07:04:59;;;;;;;;;;;23.90;90.90;;;;;;5075967;28;19931;-67
2022/08/27 07:07:26;;;;;;;;;;;23.40;91.60;;;;;;5075677;28;19999;-67
2022/08/27 07:09:51;;;;;;;;;;;22.80;92.10;;;;;;5075817;28;19934;-67
2022/08/27 07:12:17;;;;;;;;;;;22.30;92.50;;;;;;5076539;28;19999;-67
2022/08/27 07:14:42;;;;;;;;;;;22.20;93.60;;;;;;5076662;28;19998;-67
2022/08/27 07:17:08;;;;;;;;;;;21.80;94.50;;;;;;5076642;28;19954;-67
2022/08/27 07:19:37;;;;;;;;;;;;;;;;;;5076179;28;20655;-67
2022/08/27 07:22:03;;;;;;;;;;;21.50;95.10;;;;;;5076491;28;19924;-67
2022/08/27 07:24:29;;;;;;;;;;;21.50;96.60;;;;;;5076003;28;20015;-67
2022/08/27 07:26:54;;;;;;;;;;;21.50;96.00;;;;;;5076399;28;20006;-67
2022/08/27 07:29:20;;;;;;;;;;;21.50;96.30;;;;;;5059268;28;19935;-67
2022/08/27 07:31:46;;;;;;;;;;;21.60;95.90;;;;;;5076033;28;19928;-67
2022/08/27 07:34:11;;;;;;;;;;;22.10;96.30;;;;;;5076250;28;19953;-67
2022/08/27 07:36:37;;;;;;;;;;;22.60;94.10;;;;;;5076269;28;19920;-67
2022/08/27 07:39:03;;;;;;;;;;;23.10;94.70;;;;;;5076169;28;19970;-67
2022/08/27 07:41:29;;;;;;;;;;;23.00;94.10;;;;;;5094056;28;20366;-67
2022/08/27 07:46:39;;;;;;;;;;;23.10;94.00;;;;;;5075496;28;19920;-67
2022/08/27 07:49:05;;;;;;;;;;;22.70;94.70;;;;;;5075967;28;19924;-67
2022/08/27 07:51:31;;;;;;;;;;;22.90;94.40;;;;;;5075788;28;19967;-67
2022/08/27 07:53:56;;;;;;;;;;;22.90;94.10;;;;;;5075755;28;19931;-67
2022/08/27 07:56:22;;;;;;;;;;;22.50;93.90;;;;;;5075522;28;19920;-67
2022/08/27 07:58:48;;;;;;;;;;;22.60;94.30;;;;;;5093752;28;19920;-67
2022/08/27 08:01:13;;;;;;;;;;;22.50;94.80;;;;;;5093388;28;19920;-67
2022/08/27 08:03:39;;;;;;;;;;;21.90;95.20;;;;;;5075416;28;20662;-67
2022/08/27 08:06:09;;;;;;;;;;;22.10;96.20;;;;;;5075310;28;20036;-67
2022/08/27 08:08:35;;;;;;;;;;;21.60;95.90;;;;;;5075303;28;20315;-67
2022/08/27 08:11:02;;;;;;;;;;;21.80;96.20;;;;;;5075296;28;19928;-67
2022/08/27 08:13:29;;;;;;;;;;;21.50;96.40;;;;;;5075520;28;20053;-67
2022/08/27 08:15:55;;;;;;;;;;;21.30;97.50;;;;;;5075223;28;19924;-67
2022/08/27 08:18:20;;;;;;;;;;;21.40;96.80;;;;;;5093463;28;20269;-67
2022/08/27 08:20:46;;;;;;;;;;;21.30;97.00;;;;;;5074946;28;19920;-67
2022/08/27 08:23:12;;;;;;;;;;;21.40;97.10;;;;;;5093176;28;20003;-67
2022/08/27 08:25:37;;;;;;;;;;;21.30;96.20;;;;;;5093184;28;20696;-67
2022/08/27 08:28:03;;;;;;;;;;;21.30;96.30;;;;;;5074817;28;20457;-67
2022/08/27 08:30:28;;;;;;;;;;;21.10;94.80;;;;;;5075198;28;19924;-67
2022/08/27 08:32:54;;;;;;;;;;;21.10;94.70;;;;;;5074962;28;19920;-67
2022/08/27 08:35:19;;;;;;;;;;;21.10;94.70;;;;;;5074916;28;19970;-67
2022/08/27 08:37:45;;;;;;;;;;;21.20;93.10;;;;;;5074797;28;20381;-67
2022/08/27 08:40:19;;;;;;;;;;;21.20;93.50;;;;;;5057852;28;20333;-67
2022/08/27 08:42:50;;;;;;;;;;;21.70;94.00;;;;;;5074690;28;19931;-67
2022/08/27 08:45:19;;;;;;;;;;;21.70;92.70;;;;;;5074142;28;20419;-67
2022/08/27 08:47:47;;;;;;;;;;;21.70;93.10;;;;;;5074569;28;19927;-67
2022/08/27 08:50:16;;;;;;;;;;;21.90;92.00;;;;;;5074382;28;19932;-67
2022/08/27 08:52:46;;;;;;;;;;;21.90;92.70;;;;;;5074511;28;20374;-67
2022/08/27 08:55:17;;;;;;;;;;;22.20;93.60;;;;;;5057763;28;20365;-67
2022/08/27 08:57:47;;;;;;;;;;;22.60;93.60;;;;;;5074428;28;19920;-67
2022/08/27 09:00:13;;;;;;;;;;;22.70;92.70;;;;;;5074683;28;19928;-67
2022/08/27 09:02:39;;;;;;;;;;;22.60;92.60;;;;;;5074348;28;19971;-67
2022/08/27 09:05:06;;;;;;;;;;;22.50;93.20;;;;;;5074380;28;19924;-67
2022/08/27 09:07:35;;;;;;;;;;;22.30;93.20;;;;;;5074583;28;20368;-67
2022/08/27 09:10:15;;;;;;;;;;;22.00;93.60;;;;;;5074059;28;19977;-67
2022/08/27 09:12:40;;;;;;;;;;;22.00;93.70;;;;;;5074386;28;19924;-67
2022/08/27 09:15:17;;;;;;;;;;;22.10;93.70;;;;;;5074220;28;20381;-67
2022/08/27 09:17:44;;;;;;;;;;;22.20;93.80;;;;;;5074111;28;20388;-67
2022/08/27 09:20:10;;;;;;;;;;;22.40;92.80;;;;;;5074210;28;20435;-67
2022/08/27 09:22:50;;;;;;;;;;;22.50;92.60;;;;;;5092012;28;20277;-67
2022/08/27 09:25:24;;;;;;;;;;;22.40;93.00;;;;;;5074000;28;19924;-67
2022/08/27 09:27:51;;;;;;;;;;;22.00;93.00;;;;;;5092140;28;19955;-67
2022/08/27 09:30:23;;;;;;;;;;;22.30;93.40;;;;;;5073929;28;19924;-67
2022/08/27 09:32:54;;;;;;;;;;;22.40;93.10;;;;;;5074142;28;19920;-67
2022/08/27 09:35:19;;;;;;;;;;;22.10;92.50;;;;;;5057648;28;19920;-67
2022/08/27 09:37:46;;;;;;;;;;;22.20;93.50;;;;;;5073969;28;20400;-67
2022/08/27 09:40:18;;;;;;;;;;;22.40;93.50;;;;;;5057435;28;19920;-67
2022/08/27 09:42:48;;;;;;;;;;;22.20;93.40;;;;;;5073601;28;20381;-67
2022/08/27 09:45:15;;;;;;;;;;;22.60;93.50;;;;;;5073819;28;19924;-68
2022/08/27 09:47:43;;;;;;;;;;;22.50;92.70;;;;;;5057223;28;20381;-67
2022/08/27 09:50:08;;;;;;;;;;;22.30;91.10;;;;;;5073762;28;19924;-68
2022/08/27 09:52:50;;;;;;;;;;;22.00;91.40;;;;;;5073788;28;19926;-68
2022/08/27 09:55:33;;;;;;;;;;;21.80;91.90;;;;;;5091973;28;19931;-67
2022/08/27 09:57:59;;;;;;;;;;;22.10;92.40;;;;;;5077806;28;19953;-68
2022/08/27 10:00:33;;;;;;;;;;;22.20;92.60;;;;;;5078084;28;20015;-67
2022/08/27 10:03:00;;;;;;;;;;;21.90;92.20;;;;;;5077958;28;19973;-68
2022/08/27 10:05:28;;;;;;;;;;;22.20;93.10;;;;;;5077954;28;20303;-68
2022/08/27 10:07:58;;;;;;;;;;;22.40;93.00;;;;;;5077501;28;19956;-68
2022/08/27 10:10:40;;;;;;;;;;;22.50;93.20;;;;;;5077707;28;19924;-68
2022/08/27 10:13:09;;;;;;;;;;;22.60;92.50;;;;;;5077477;28;20000;-67
2022/08/27 10:15:38;;;;;;;;;;;22.60;92.90;;;;;;5077450;28;20011;-67
2022/08/27 10:18:16;;;;;;;;;;;22.30;92.90;;;;;;5077447;28;19927;-68
2022/08/27 10:20:57;;;;;;;;;;;22.20;92.80;;;;;;5077380;28;20560;-67
2022/08/27 10:23:37;;;;;;;;;;;22.30;93.10;;;;;;5077055;28;19979;-67
2022/08/27 10:26:14;;;;;;;;;;;22.40;92.90;;;;;;5076785;28;20028;-68
2022/08/27 10:28:56;;;;;;;;;;;22.50;92.40;;;;;;5077173;28;19978;-68
2022/08/27 10:31:41;;;;;;;;;;;22.40;93.00;;;;;;5076981;28;19928;-68
2022/08/27 10:34:12;;;;;;;;;;;22.40;92.80;;;;;;5076296;28;19993;-68
2022/08/27 10:36:41;;;;;;;;;;;22.20;91.70;;;;;;5076439;28;19930;-68
2022/08/27 10:39:14;;;;;;;;;;;22.40;91.80;;;;;;5076286;28;19924;-67
2022/08/27 10:41:49;;;;;;;;;;;22.60;92.50;;;;;;5076375;28;19920;-67
2022/08/27 10:44:33;;;;;;;;;;;22.40;91.90;;;;;;5077011;28;19931;-68
2022/08/27 10:47:13;;;;;;;;;;;22.60;92.70;;;;;;5095104;28;20356;-68
2022/08/27 10:49:44;;;;;;;;;;;22.70;91.60;;;;;;5094934;28;19931;-68
2022/08/27 10:52:22;;;;;;;;;;;22.90;92.00;;;;;;5077033;28;19931;-68
2022/08/27 10:55:02;;;;;;;;;;;23.00;91.90;;;;;;5076823;28;19920;-68
2022/08/27 10:57:28;;;;;;;;;;;22.80;92.00;;;;;;5076594;28;19931;-68
2022/08/27 11:00:05;;;;;;;;;;;22.90;92.10;;;;;;5094803;28;20020;-67
2022/08/27 11:02:52;;;;;;;;;;;22.70;91.80;;;;;;5060000;28;19920;-67
2022/08/27 11:05:20;;;;;;;;;;;22.70;91.90;;;;;;5094918;28;19924;-67
2022/08/27 11:07:50;;;;;;;;;;;22.80;92.50;;;;;;5076042;28;19967;-68
2022/08/27 11:10:34;;;;;;;;;;;22.40;91.30;;;;;;5094597;28;19935;-67
2022/08/27 11:13:03;;;;;;;;;;;22.40;92.00;;;;;;5076202;28;20012;-67
2022/08/27 11:15:31;;;;;;;;;;;22.50;92.20;;;;;;5076664;28;20496;-67
2022/08/27 11:18:04;;;;;;;;;;;22.60;91.70;;;;;;5076313;28;19920;-68
2022/08/27 11:20:33;;;;;;;;;;;22.70;92.00;;;;;;5076358;28;20007;-67
2022/08/27 11:23:03;;;;;;;;;;;22.60;91.30;;;;;;5076147;28;20339;-67
2022/08/27 11:25:49;;;;;;;;;;;22.70;91.30;;;;;;5076292;28;20293;-68
2022/08/27 11:28:17;;;;;;;;;;;22.60;91.90;;;;;;5075967;28;19931;-68
2022/08/27 11:30:51;;;;;;;;;;;22.60;90.50;;;;;;5075909;28;19931;-67
2022/08/27 11:33:40;;;;;;;;;;;22.40;89.80;;;;;;5076217;28;19931;-67
2022/08/27 11:36:17;;;;;;;;;;;22.50;91.30;;;;;;5059339;28;20008;-68
2022/08/27 11:38:55;;;;;;;;;;;22.60;91.20;;;;;;5094231;28;19927;-68
2022/08/27 11:41:23;;;;;;;;;;;22.80;90.80;;;;;;5075971;28;19924;-68
2022/08/27 11:43:49;;;;;;;;;;;22.60;92.00;;;;;;5075834;28;19976;-67
2022/08/27 11:46:26;;;;;;;;;;;22.60;92.50;;;;;;5075660;28;19920;-67
2022/08/27 11:48:59;;;;;;;;;;;22.70;91.70;;;;;;5075697;28;20354;-67
2022/08/27 11:51:35;;;;;;;;;;;22.50;91.70;;;;;;5075615;28;19921;-67
2022/08/27 11:54:21;;;;;;;;;;;22.90;91.60;;;;;;5075491;28;20388;-68
2022/08/27 11:56:47;;;;;;;;;;;23.00;91.10;;;;;;5094104;28;19927;-67
2022/08/27 11:59:19;;;;;;;;;;;23.20;90.90;;;;;;5075460;28;19920;-68
2022/08/27 12:01:45;;;;;;;;;;;23.00;91.00;;;;;;5075499;28;20069;-67
2022/08/27 12:04:29;;;;;;;;;;;22.80;91.00;;;;;;5075475;28;20041;-68
2022/08/27 12:07:03;;;;;;;;;;;23.00;91.40;;;;;;5093643;28;19924;-68
2022/08/27 12:09:41;;;;;;;;;;;23.10;89.90;;;;;;5093510;28;19931;-67
2022/08/27 12:12:13;;;;;;;;;;;22.60;89.50;;;;;;5075319;28;20456;-68
2022/08/27 12:14:45;;;;;;;;;;;22.50;90.80;;;;;;5075141;28;20006;-68
2022/08/27 12:17:36;;;;;;;;;;;22.30;90.60;;;;;;5075101;28;19931;-67
2022/08/27 12:20:13;;;;;;;;;;;22.40;90.60;;;;;;5057358;28;19924;-67
2022/08/27 12:25:38;;;;;;;;;;;22.60;90.30;;;;;;5093080;28;19951;-68
2022/08/27 12:28:05;;;;;;;;;;;23.00;90.40;;;;;;5075070;28;20340;-67
2022/08/27 12:30:33;;;;;;;;;;;22.70;88.60;;;;;;5093207;28;20286;-68
2022/08/27 12:33:03;;;;;;;;;;;22.50;90.40;;;;;;5075071;28;20594;-67
2022/08/27 12:35:49;;;;;;;;;;;22.50;90.00;;;;;;5092910;28;19920;-67
2022/08/27 12:38:17;;;;;;;;;;;22.60;90.90;;;;;;5092910;28;20398;-67
2022/08/27 12:40:49;;;;;;;;;;;22.50;90.20;;;;;;5074427;28;19924;-67
2022/08/27 12:43:18;;;;;;;;;;;22.60;91.20;;;;;;5074596;28;20365;-68
2022/08/27 12:46:05;;;;;;;;;;;22.70;90.60;;;;;;5074342;28;20003;-68
2022/08/27 12:48:40;;;;;;;;;;;23.00;91.30;;;;;;5092570;28;19947;-67
2022/08/27 12:51:07;;;;;;;;;;;23.50;90.60;;;;;;5074020;28;19963;-67
2022/08/27 12:53:40;;;;;;;;;;;22.90;87.60;;;;;;5074292;28;20310;-67
2022/08/27 12:56:25;;;;;;;;;;;22.60;89.50;;;;;;5074265;28;19924;-67
2022/08/27 12:59:26;;;;;;;;;;;22.00;90.10;;;;;;5074364;28;19963;-67
2022/08/27 13:02:03;;;;;;;;;;;22.10;90.40;;;;;;5091689;28;19924;-67
2022/08/27 13:04:30;;;;;;;;;;;22.10;91.00;;;;;;5092009;28;19920;-67
2022/08/27 13:06:56;;;;;;;;;;;22.50;91.40;;;;;;5073604;28;19928;-67
2022/08/27 13:09:27;;;;;;;;;;;22.80;91.00;;;;;;5073559;28;19930;-67
2022/08/27 13:11:55;;;;;;;;;;;23.10;90.30;;;;;;5073736;28;19970;-67
2022/08/27 13:14:22;;;;;;;;;;;23.40;88.40;;;;;;5073813;28;19986;-67
2022/08/27 13:16:52;;;;;;;;;;;23.50;87.90;;;;;;5073708;28;19920;-67
2022/08/27 13:19:31;;;;;;;;;;;23.70;88.90;;;;;;5073680;28;20374;-67
2022/08/27 13:21:57;;;;;;;;;;;22.90;88.70;;;;;;5073545;28;20018;-67
2022/08/27 13:24:43;;;;;;;;;;;23.00;90.90;;;;;;5070327;28;20023;-67
2022/08/27 13:27:08;;;;;;;;;;;23.00;89.50;;;;;;5070299;28;19932;-67
2022/08/27 13:29:34;;;;;;;;;;;23.10;88.40;;;;;;5070315;28;20465;-67
2022/08/27 13:32:00;;;;;;;;;;;23.40;90.60;;;;;;5070384;28;20393;-67
2022/08/27 13:34:26;;;;;;;;;;;23.50;86.80;;;;;;5070386;28;19998;-67
2022/08/27 13:36:54;;;;;;;;;;;23.20;89.20;;;;;;5070282;28;19928;-68
2022/08/27 13:39:20;;;;;;;;;;;23.00;90.20;;;;;;5070438;28;19924;-68
2022/08/27 13:41:46;;;;;;;;;;;23.00;89.70;;;;;;5070511;28;19951;-67
2022/08/27 13:44:18;;;;;;;;;;;23.00;90.90;;;;;;5071912;28;19930;-68
2022/08/27 13:46:48;;;;;;;;;;;23.30;88.80;;;;;;5070347;28;19920;-67
2022/08/27 13:49:17;;;;;;;;;;;23.70;87.30;;;;;;5070326;28;19924;-67
2022/08/27 13:51:44;;;;;;;;;;;23.80;86.50;;;;;;5071692;28;19921;-67
2022/08/27 13:54:14;;;;;;;;;;;23.70;86.00;;;;;;5070372;28;19920;-67
2022/08/27 13:56:46;;;;;;;;;;;23.30;86.10;;;;;;5071702;28;20621;-67
2022/08/27 13:59:17;;;;;;;;;;;23.00;87.00;;;;;;5071776;28;19935;-67
2022/08/27 14:01:58;;;;;;;;;;;22.80;88.30;;;;;;5070202;28;19924;-67
2022/08/27 14:04:26;;;;;;;;;;;22.70;88.20;;;;;;5071719;28;19935;-67
2022/08/27 14:06:52;;;;;;;;;;;23.00;88.50;;;;;;5070135;28;20267;-67
2022/08/27 14:09:24;;;;;;;;;;;23.10;86.70;;;;;;5070146;28;19939;-67
2022/08/27 14:11:57;;;;;;;;;;;23.10;87.80;;;;;;5070114;28;19970;-67
2022/08/27 14:14:22;;;;;;;;;;;23.40;89.30;;;;;;5070244;28;19925;-67
2022/08/27 14:16:55;;;;;;;;;;;23.50;87.30;;;;;;5070406;28;19920;-67
2022/08/27 14:19:25;;;;;;;;;;;22.90;86.50;;;;;;5070280;28;19924;-67
2022/08/27 14:21:51;;;;;;;;;;;22.80;88.50;;;;;;5069916;28;19925;-67
2022/08/27 14:24:16;;;;;;;;;;;22.50;90.00;;;;;;5053062;28;19928;-67
2022/08/27 14:26:42;;;;;;;;;;;22.40;89.90;;;;;;5069664;28;19966;-67
2022/08/27 14:29:07;;;;;;;;;;;22.50;90.60;;;;;;5069635;28;19972;-68
2022/08/27 14:31:33;;;;;;;;;;;22.50;90.60;;;;;;5069719;28;19920;-67
2022/08/27 14:33:59;;;;;;;;;;;22.60;90.60;;;;;;5069860;28;20007;-67
2022/08/27 14:36:26;;;;;;;;;;;22.90;91.50;;;;;;5069977;28;20006;-67
2022/08/27 14:38:51;;;;;;;;;;;23.20;90.00;;;;;;5070084;28;20301;-67